createdAt,value
2023-01-04T00:01:13.741Z,10.85
2023-01-04T00:03:40.968Z,9.98
2023-01-04T00:06:09.638Z,9.30
2023-01-04T00:08:36.578Z,8.23
2023-01-04T00:11:07.905Z,7.45
2023-01-04T00:16:11.701Z,6.45
2023-01-04T00:18:38.774Z,5.80
2023-01-04T00:21:17.473Z,5.47
2023-01-04T00:23:47.456Z,5.25
2023-01-04T00:26:19.634Z,5.18
2023-01-04T00:28:53.564Z,4.57
2023-01-04T00:31:21.779Z,5.03
2023-01-04T00:33:48.714Z,4.57
2023-01-04T00:36:15.843Z,4.78
2023-01-04T00:38:43.342Z,4.57
2023-01-04T00:41:28.293Z,4.20
2023-01-04T00:43:59.950Z,4.20
2023-01-04T00:46:26.993Z,4.50
2023-01-04T00:48:56.723Z,4.28
2023-01-04T00:51:27.951Z,3.67
2023-01-04T00:53:54.903Z,3.45
2023-01-04T00:56:21.989Z,3.55
2023-01-04T00:58:48.940Z,3.50
2023-01-04T01:01:15.966Z,3.25
2023-01-04T01:03:44.677Z,3.10
2023-01-04T01:06:12.529Z,3.27
2023-01-04T01:08:39.759Z,3.15
2023-01-04T01:11:10.605Z,2.85
2023-01-04T01:13:38.201Z,2.90
2023-01-04T01:16:11.861Z,2.95
2023-01-04T01:18:40.413Z,2.80
2023-01-04T01:21:09.237Z,2.97
2023-01-04T01:23:36.384Z,2.97
2023-01-04T01:26:05.481Z,3.30
2023-01-04T01:28:34.267Z,2.67
2023-01-04T01:31:09.278Z,2.42
2023-01-04T01:33:37.947Z,2.67
2023-01-04T01:36:05.953Z,2.58
2023-01-04T01:38:32.924Z,2.42
2023-01-04T01:40:59.886Z,2.47
2023-01-04T01:43:59.501Z,2.80
2023-01-04T01:46:31.544Z,3.10
2023-01-04T01:49:29.727Z,2.53
2023-01-04T01:51:59.631Z,2.50
2023-01-04T01:54:35.831Z,2.45
2023-01-04T01:57:06.411Z,2.25
2023-01-04T01:59:34.805Z,2.15
2023-01-04T02:02:01.946Z,2.22
2023-01-04T02:04:29.601Z,2.03
2023-01-04T02:09:26.568Z,2.20
2023-01-04T02:11:53.541Z,2.45
2023-01-04T02:14:30.148Z,2.45
2023-01-04T02:17:34.748Z,1.90
2023-01-04T02:20:24.651Z,2.28
2023-01-04T02:23:12.958Z,2.00
2023-01-04T02:26:07.777Z,1.73
2023-01-04T02:28:43.469Z,1.92
2023-01-04T02:31:45.888Z,2.08
2023-01-04T02:34:31.525Z,1.95
2023-01-04T02:37:10.659Z,1.80
2023-01-04T02:40:03.680Z,2.78
2023-01-04T02:42:52.233Z,1.90
2023-01-04T02:45:22.939Z,1.70
2023-01-04T02:50:54.186Z,3.45
2023-01-04T02:53:34.588Z,1.85
2023-01-04T02:56:39.830Z,1.70
2023-01-04T02:59:23.280Z,1.30
2023-01-04T03:02:47.862Z,1.50
2023-01-04T03:06:01.921Z,1.48
2023-01-04T03:08:32.597Z,1.52
2023-01-04T03:11:31.547Z,1.85
2023-01-04T03:14:02.423Z,1.55
2023-01-04T03:16:49.933Z,1.60
2023-01-04T03:19:37.636Z,1.23
2023-01-04T03:22:05.223Z,1.05
2023-01-04T03:24:52.097Z,1.33
2023-01-04T03:27:38.442Z,1.63
2023-01-04T03:33:27.008Z,1.30
2023-01-04T03:36:20.543Z,1.67
2023-01-04T03:39:38.102Z,1.30
2023-01-04T03:42:41.218Z,1.65
2023-01-04T03:45:37.295Z,1.08
2023-01-04T03:48:32.421Z,1.50
2023-01-04T03:51:14.771Z,1.60
2023-01-04T03:54:04.126Z,1.48
2023-01-04T03:56:32.689Z,1.08
2023-01-04T03:59:00.185Z,1.25
2023-01-04T04:01:28.003Z,0.70
2023-01-04T04:04:13.853Z,0.80
2023-01-04T04:06:59.316Z,0.90
2023-01-04T04:09:26.294Z,1.52
2023-01-04T04:11:53.591Z,0.98
2023-01-04T04:14:20.545Z,1.23
2023-01-04T04:16:47.651Z,0.63
2023-01-04T04:19:14.644Z,0.52
2023-01-04T04:21:42.080Z,0.90
2023-01-04T04:24:24.356Z,1.55
2023-01-04T04:26:57.408Z,1.42
2023-01-04T04:29:25.058Z,0.85
2023-01-04T04:31:52.335Z,0.60
2023-01-04T04:34:19.333Z,0.60
2023-01-04T04:36:46.880Z,0.80
2023-01-04T04:39:14.020Z,0.63
2023-01-04T04:41:41.916Z,0.98
2023-01-04T04:44:14.224Z,0.60
2023-01-04T04:46:42.110Z,0.73
2023-01-04T04:49:10.116Z,0.77
2023-01-04T04:51:37.973Z,0.82
2023-01-04T04:54:07.670Z,0.65
2023-01-04T04:56:37.067Z,1.08
2023-01-04T04:59:05.331Z,0.57
2023-01-04T05:01:32.533Z,0.63
2023-01-04T05:03:59.758Z,1.02
2023-01-04T05:06:27.051Z,0.73
2023-01-04T05:08:54.016Z,0.50
2023-01-04T05:11:41.056Z,0.75
2023-01-04T05:14:08.383Z,0.60
2023-01-04T05:16:35.333Z,1.08
2023-01-04T05:19:02.257Z,0.88
2023-01-04T05:21:29.143Z,0.85
2023-01-04T05:23:56.061Z,1.55
2023-01-04T05:26:22.974Z,0.95
2023-01-04T05:28:53.598Z,0.43
2023-01-04T05:31:21.122Z,0.82
2023-01-04T05:33:48.038Z,0.77
2023-01-04T05:36:14.946Z,1.42
2023-01-04T05:38:41.822Z,0.50
2023-01-04T05:41:28.622Z,0.60
2023-01-04T05:43:55.671Z,0.60
2023-01-04T05:46:22.957Z,0.65
2023-01-04T05:48:49.907Z,0.63
2023-01-04T05:51:16.775Z,0.90
2023-01-04T05:53:43.659Z,0.50
2023-01-04T05:56:10.584Z,0.68
2023-01-04T05:58:37.596Z,0.40
2023-01-04T06:01:07.727Z,0.60
2023-01-04T06:03:35.239Z,0.50
2023-01-04T06:06:02.263Z,0.40
2023-01-04T06:08:29.231Z,0.50
2023-01-04T06:10:56.180Z,0.30
2023-01-04T06:13:23.158Z,0.40
2023-01-04T06:15:50.126Z,0.90
2023-01-04T06:18:17.108Z,0.75
2023-01-04T06:20:44.130Z,0.68
2023-01-04T06:23:11.280Z,0.32
2023-01-04T06:25:38.823Z,0.98
2023-01-04T06:28:05.792Z,0.70
2023-01-04T06:30:32.793Z,0.45
2023-01-04T06:32:59.774Z,0.50
2023-01-04T06:35:26.767Z,0.63
2023-01-04T06:37:53.683Z,0.80
2023-01-04T06:40:20.606Z,0.70
2023-01-04T06:42:47.633Z,0.55
2023-01-04T06:45:15.809Z,0.88
2023-01-04T06:47:42.859Z,0.30
2023-01-04T06:50:10.383Z,0.38
2023-01-04T06:52:37.454Z,0.68
2023-01-04T06:55:05.426Z,0.60
2023-01-04T06:57:32.420Z,0.63
2023-01-04T06:59:59.400Z,0.40
2023-01-04T07:02:27.002Z,0.77
2023-01-04T07:04:54.124Z,0.25
2023-01-04T07:07:21.118Z,0.40
2023-01-04T07:09:48.050Z,0.52
2023-01-04T07:12:15.090Z,0.60
2023-01-04T07:14:42.369Z,0.68
2023-01-04T07:17:09.315Z,0.65
2023-01-04T07:19:36.263Z,0.35
2023-01-04T07:22:03.328Z,0.40
2023-01-04T07:24:30.884Z,0.60
2023-01-04T07:27:00.286Z,1.05
2023-01-04T07:29:27.531Z,0.60
2023-01-04T07:31:54.934Z,0.68
2023-01-04T07:34:24.009Z,0.77
2023-01-04T07:36:51.564Z,0.40
2023-01-04T07:39:19.485Z,0.43
2023-01-04T07:44:15.343Z,0.35
2023-01-04T07:46:43.199Z,0.47
2023-01-04T07:49:17.614Z,0.20
2023-01-04T07:51:49.393Z,1.13
2023-01-04T07:54:19.697Z,0.70
2023-01-04T07:56:47.343Z,0.50
2023-01-04T07:59:15.177Z,0.20
2023-01-04T08:01:42.231Z,0.63
2023-01-04T08:04:10.545Z,0.47
2023-01-04T08:06:38.188Z,0.60
2023-01-04T08:09:06.065Z,0.30
2023-01-04T08:11:33.660Z,0.20
2023-01-04T08:14:00.787Z,0.47
2023-01-04T08:16:34.331Z,1.25
2023-01-04T08:19:07.271Z,1.83
2023-01-04T08:21:35.868Z,3.85
2023-01-04T08:24:03.677Z,3.92
2023-01-04T08:26:31.463Z,4.05
2023-01-04T08:28:58.808Z,3.72
2023-01-04T08:31:28.617Z,2.38
2023-01-04T08:36:28.069Z,2.42
2023-01-04T08:39:01.653Z,2.42
2023-01-04T08:44:25.311Z,3.30
2023-01-04T08:46:53.677Z,2.75
2023-01-04T08:49:21.361Z,3.60
2023-01-04T08:51:48.886Z,3.45
2023-01-04T08:54:16.689Z,4.18
2023-01-04T08:56:44.171Z,2.50
2023-01-04T08:59:13.015Z,2.72
2023-01-04T09:01:40.270Z,3.33
2023-01-04T09:04:07.716Z,2.90
2023-01-04T09:06:35.266Z,5.07
2023-01-04T09:09:02.552Z,2.05
2023-01-04T09:11:29.525Z,2.40
2023-01-04T09:14:06.416Z,1.33
2023-01-04T09:16:35.140Z,2.20
2023-01-04T09:19:02.206Z,2.25
2023-01-04T09:21:29.190Z,1.40
2023-01-04T09:23:57.800Z,1.55
2023-01-04T09:26:25.006Z,6.10
2023-01-04T09:28:53.469Z,2.42
2023-01-04T09:31:22.312Z,2.80
2023-01-04T09:34:18.824Z,1.60
2023-01-04T09:36:36.128Z,2.28
2023-01-04T09:39:03.181Z,1.85
2023-01-04T09:41:32.901Z,2.00
2023-01-04T09:46:48.091Z,2.70
2023-01-04T09:49:21.565Z,1.45
2023-01-04T09:52:28.700Z,1.30
2023-01-04T09:55:04.919Z,1.27
2023-01-04T09:57:58.848Z,1.70
2023-01-04T10:03:15.593Z,1.45
2023-01-04T10:05:42.874Z,1.15
2023-01-04T10:08:20.243Z,2.03
2023-01-04T10:11:02.904Z,0.77
2023-01-04T10:13:49.486Z,1.52
2023-01-04T10:17:10.868Z,1.40
2023-01-04T10:23:08.720Z,1.20
2023-01-04T10:25:44.730Z,3.88
2023-01-04T10:28:14.421Z,1.42
2023-01-04T10:30:54.685Z,4.00
2023-01-04T10:33:47.383Z,1.63
2023-01-04T10:36:21.609Z,2.95
2023-01-04T10:39:05.966Z,0.80
2023-01-04T10:41:37.367Z,2.25
2023-01-04T10:44:14.344Z,1.20
2023-01-04T10:47:08.765Z,2.05
2023-01-04T10:49:49.266Z,1.35
2023-01-04T10:52:36.487Z,3.53
2023-01-04T10:55:31.209Z,2.50
2023-01-04T10:58:12.328Z,0.77
2023-01-04T11:00:44.328Z,2.97
2023-01-04T11:04:02.585Z,3.03
2023-01-04T11:06:40.486Z,1.17
2023-01-04T11:09:13.420Z,0.93
2023-01-04T11:11:47.735Z,0.70
2023-01-04T11:14:15.511Z,1.48
2023-01-04T11:16:44.989Z,0.65
2023-01-04T11:19:12.067Z,0.98
2023-01-04T11:21:51.149Z,2.22
2023-01-04T11:24:34.620Z,1.60
2023-01-04T11:29:55.416Z,1.03
2023-01-04T11:32:37.941Z,0.95
2023-01-04T11:35:05.482Z,1.90
2023-01-04T11:40:22.899Z,1.05
2023-01-04T11:43:11.285Z,1.20
2023-01-04T11:45:38.561Z,2.17
2023-01-04T11:48:12.394Z,0.75
2023-01-04T11:50:48.564Z,0.68
2023-01-04T11:53:31.602Z,0.95
2023-01-04T11:56:10.027Z,1.23
2023-01-04T11:58:37.167Z,0.77
2023-01-04T12:01:04.186Z,1.48
2023-01-04T12:03:34.516Z,0.50
2023-01-04T12:06:01.539Z,0.60
2023-01-04T12:08:33.463Z,1.23
2023-01-04T12:11:04.390Z,1.45
2023-01-04T12:13:34.917Z,1.88
2023-01-04T12:16:18.412Z,0.88
2023-01-04T12:18:45.474Z,1.13
2023-01-04T12:21:24.888Z,2.10
2023-01-04T12:23:53.310Z,0.95
2023-01-04T12:26:21.207Z,1.58
2023-01-04T12:28:54.213Z,1.05
2023-01-04T12:31:21.786Z,1.42
2023-01-04T12:33:50.535Z,1.45
2023-01-04T12:36:22.423Z,0.73
2023-01-04T12:38:55.259Z,0.63
2023-01-04T12:41:24.354Z,3.20
2023-01-04T12:43:53.304Z,1.20
2023-01-04T12:46:47.625Z,0.75
2023-01-04T12:49:27.254Z,0.20
2023-01-04T12:54:58.821Z,3.30
2023-01-04T12:57:37.938Z,1.42
2023-01-04T13:00:06.893Z,1.27
2023-01-04T13:02:44.151Z,0.75
2023-01-04T13:08:10.141Z,0.43
2023-01-04T13:10:42.534Z,1.33
2023-01-04T13:13:30.581Z,0.45
2023-01-04T13:16:21.989Z,0.45
2023-01-04T13:18:51.589Z,1.08
2023-01-04T13:21:41.467Z,0.75
2023-01-04T13:24:19.901Z,1.55
2023-01-04T13:26:48.465Z,0.93
2023-01-04T13:29:24.044Z,0.50
2023-01-04T13:31:57.951Z,0.30
2023-01-04T13:34:29.392Z,0.30
2023-01-04T13:37:08.344Z,1.20
2023-01-04T13:39:37.080Z,0.80
2023-01-04T13:42:04.729Z,1.13
2023-01-04T13:45:09.131Z,1.38
2023-01-04T13:49:53.001Z,0.63
2023-01-04T13:55:18.280Z,4.22
2023-01-04T13:57:59.368Z,1.80
2023-01-04T14:00:34.649Z,0.25
2023-01-04T14:03:21.831Z,0.55
2023-01-04T14:05:51.639Z,0.47
2023-01-04T14:08:45.867Z,0.75
2023-01-04T14:12:02.094Z,1.35
2023-01-04T14:14:47.070Z,0.63
2023-01-04T14:17:36.590Z,0.50
2023-01-04T14:20:26.543Z,0.60
2023-01-04T14:22:58.807Z,0.40
2023-01-04T14:25:35.727Z,0.20
2023-01-04T14:28:28.457Z,0.50
2023-01-04T14:31:01.468Z,0.68
2023-01-04T14:33:45.434Z,0.85
2023-01-04T14:36:13.717Z,0.57
2023-01-04T14:38:40.753Z,0.20
2023-01-04T14:41:21.518Z,0.35
2023-01-04T14:44:14.545Z,0.40
2023-01-04T14:46:46.241Z,0.50
2023-01-04T14:49:14.102Z,0.30
2023-01-04T14:51:52.667Z,0.20
2023-01-04T14:54:24.906Z,0.30
2023-01-04T14:56:53.467Z,0.88
2023-01-04T14:59:20.519Z,0.70
2023-01-04T15:01:47.531Z,0.88
2023-01-04T15:04:14.596Z,1.15
2023-01-04T15:07:32.127Z,0.30
2023-01-04T15:09:59.017Z,0.52
2023-01-04T15:12:25.922Z,0.30
2023-01-04T15:14:52.845Z,0.32
2023-01-04T15:17:19.708Z,0.45
2023-01-04T15:19:48.497Z,0.45
2023-01-04T15:22:15.413Z,1.10
2023-01-04T15:24:42.282Z,0.45
2023-01-04T15:27:09.225Z,0.38
2023-01-04T15:29:36.111Z,0.57
2023-01-04T15:32:03.124Z,0.77
2023-01-04T15:34:30.094Z,0.60
2023-01-04T15:36:57.012Z,0.70
2023-01-04T15:39:23.979Z,0.50
2023-01-04T15:42:09.402Z,1.05
2023-01-04T15:44:36.326Z,1.20
2023-01-04T15:47:03.323Z,1.17
2023-01-04T15:49:31.106Z,0.80
2023-01-04T15:51:58.017Z,0.45
2023-01-04T15:54:25.976Z,1.75
2023-01-04T15:56:52.908Z,0.85
2023-01-04T15:59:20.187Z,1.17
2023-01-04T16:01:47.752Z,1.45
2023-01-04T16:04:15.180Z,0.45
2023-01-04T16:06:42.091Z,2.28
2023-01-04T16:09:09.460Z,0.68
2023-01-04T16:11:36.469Z,1.55
2023-01-04T16:14:03.501Z,0.75
2023-01-04T16:16:30.480Z,1.25
2023-01-04T16:18:57.589Z,2.33
2023-01-04T16:21:28.725Z,1.00
2023-01-04T16:24:09.175Z,2.28
2023-01-04T16:26:40.223Z,2.03
2023-01-04T16:29:07.110Z,2.55
2023-01-04T16:31:35.317Z,2.33
2023-01-04T16:34:02.371Z,3.80
2023-01-04T16:36:29.397Z,1.92
2023-01-04T16:38:56.280Z,2.88
2023-01-04T16:41:24.997Z,1.33
2023-01-04T16:43:55.469Z,2.00
2023-01-04T16:46:28.574Z,1.55
2023-01-04T16:49:10.873Z,2.35
2023-01-04T16:51:39.292Z,2.63
2023-01-04T16:54:08.418Z,3.58
2023-01-04T16:56:35.458Z,2.15
2023-01-04T16:59:03.277Z,3.25
2023-01-04T17:01:32.825Z,2.97
2023-01-04T17:04:04.130Z,1.98
2023-01-04T17:06:32.492Z,2.55
2023-01-04T17:09:00.794Z,2.72
2023-01-04T17:14:16.644Z,2.67
2023-01-04T17:16:44.149Z,3.70
2023-01-04T17:19:11.102Z,3.30
2023-01-04T17:21:38.028Z,4.05
2023-01-04T17:24:05.161Z,4.25
2023-01-04T17:26:32.799Z,4.43
2023-01-04T17:29:01.141Z,3.95
2023-01-04T17:31:40.064Z,5.82
2023-01-04T17:34:09.620Z,3.17
2023-01-04T17:36:38.086Z,4.57
2023-01-04T17:41:32.288Z,3.67
2023-01-04T17:44:01.939Z,4.53
2023-01-04T17:49:21.756Z,4.67
2023-01-04T17:51:46.455Z,5.53
2023-01-04T17:54:14.038Z,3.88
2023-01-04T17:56:41.071Z,5.03
2023-01-04T17:59:08.100Z,6.05
2023-01-04T18:01:36.047Z,3.72
2023-01-04T18:04:03.812Z,3.70
2023-01-04T18:06:33.990Z,5.55
2023-01-04T18:09:03.999Z,4.22
2023-01-04T18:11:30.989Z,4.40
2023-01-04T18:13:58.168Z,4.20
2023-01-04T18:16:29.359Z,5.30
2023-01-04T18:18:58.498Z,4.43
2023-01-04T18:21:30.467Z,6.75
2023-01-04T18:29:36.941Z,5.88
2023-01-04T18:32:04.217Z,4.60
2023-01-04T18:34:31.404Z,4.55
2023-01-04T18:36:58.371Z,6.25
2023-01-04T18:39:25.480Z,5.35
2023-01-04T18:41:52.449Z,5.65
2023-01-04T18:44:39.675Z,5.15
2023-01-04T18:47:08.173Z,3.30
2023-01-04T18:49:35.187Z,3.65
2023-01-04T18:52:02.140Z,5.10
2023-01-04T18:54:29.086Z,5.85
2023-01-04T18:57:00.788Z,4.57
2023-01-04T18:59:31.166Z,5.68
2023-01-04T19:02:02.527Z,4.60
2023-01-04T19:04:31.995Z,5.30
2023-01-04T19:07:00.405Z,6.35
2023-01-04T19:09:27.353Z,4.40
2023-01-04T19:11:54.216Z,5.75
2023-01-04T19:14:21.115Z,6.03
2023-01-04T19:16:48.066Z,5.50
2023-01-04T19:19:15.046Z,4.40
2023-01-04T19:21:42.001Z,5.65
2023-01-04T19:24:09.068Z,4.68
2023-01-04T19:26:36.050Z,3.35
2023-01-04T19:29:04.346Z,6.10
2023-01-04T19:31:31.396Z,4.55
2023-01-04T19:33:58.344Z,5.53
2023-01-04T19:36:25.231Z,6.10
2023-01-04T19:38:52.122Z,7.10
2023-01-04T19:41:29.064Z,9.90
2023-01-04T19:43:58.076Z,7.40
2023-01-04T19:46:25.324Z,10.02
2023-01-04T19:48:52.293Z,6.38
2023-01-04T19:51:20.268Z,8.32
2023-01-04T19:53:47.249Z,5.43
2023-01-04T19:56:16.929Z,7.53
2023-01-04T20:01:15.128Z,5.50
2023-01-04T20:03:42.333Z,7.55
2023-01-04T20:06:10.373Z,6.85
2023-01-04T20:08:37.892Z,4.75
2023-01-04T20:11:04.997Z,5.93
2023-01-04T20:13:33.552Z,7.25
2023-01-04T20:16:01.244Z,4.00
2023-01-04T20:18:28.223Z,5.45
2023-01-04T20:20:55.239Z,4.40
2023-01-04T20:23:22.504Z,6.15
2023-01-04T20:25:51.874Z,4.88
2023-01-04T20:28:20.628Z,4.72
2023-01-04T20:30:48.079Z,5.15
2023-01-04T20:33:15.124Z,5.07
2023-01-04T20:35:43.795Z,7.43
2023-01-04T20:38:11.896Z,5.15
2023-01-04T20:40:39.567Z,5.10
2023-01-04T20:43:41.867Z,5.07
2023-01-04T20:46:20.337Z,4.82
2023-01-04T20:51:18.418Z,3.05
2023-01-04T20:53:46.040Z,5.43
2023-01-04T20:56:18.785Z,3.35
2023-01-04T20:58:46.362Z,4.93
2023-01-04T21:01:14.795Z,4.53
2023-01-04T21:03:42.209Z,3.20
2023-01-04T21:06:11.820Z,3.80
2023-01-04T21:08:39.785Z,4.93
2023-01-04T21:11:07.346Z,4.05
2023-01-04T21:13:34.464Z,3.65
2023-01-04T21:16:01.699Z,5.10
2023-01-04T21:18:28.731Z,4.35
2023-01-04T21:20:55.637Z,7.60
2023-01-04T21:23:24.739Z,5.15
2023-01-04T21:25:51.813Z,6.05
2023-01-04T21:28:21.369Z,5.53
2023-01-04T21:30:49.492Z,5.53
2023-01-04T21:33:17.308Z,5.85
2023-01-04T21:35:44.303Z,4.72
2023-01-04T21:38:11.678Z,3.13
2023-01-04T21:40:40.977Z,4.05
2023-01-04T21:43:12.297Z,4.15
2023-01-04T21:45:39.853Z,3.80
2023-01-04T21:48:07.183Z,3.33
2023-01-04T21:50:34.708Z,5.78
2023-01-04T21:53:01.634Z,3.40
2023-01-04T21:55:34.155Z,4.97
2023-01-04T21:58:02.387Z,3.92
2023-01-04T22:00:29.354Z,3.17
2023-01-04T22:02:56.389Z,2.78
2023-01-04T22:05:23.438Z,3.25
2023-01-04T22:07:50.442Z,4.25
2023-01-04T22:10:17.501Z,4.55
2023-01-04T22:12:45.104Z,2.92
2023-01-04T22:15:12.195Z,6.80
2023-01-04T22:17:39.381Z,3.97
2023-01-04T22:20:06.860Z,5.32
2023-01-04T22:22:33.814Z,3.53
2023-01-04T22:25:00.778Z,3.00
2023-01-04T22:27:27.775Z,3.28
2023-01-04T22:29:56.338Z,3.25
2023-01-04T22:32:23.297Z,3.85
2023-01-04T22:34:50.469Z,2.72
2023-01-04T22:37:17.555Z,3.47
2023-01-04T22:39:44.577Z,3.38
2023-01-04T22:42:11.568Z,3.28
2023-01-04T22:44:38.519Z,5.32
2023-01-04T22:47:05.689Z,3.92
2023-01-04T22:49:33.445Z,7.38
2023-01-04T22:52:00.476Z,5.70
2023-01-04T22:54:27.439Z,7.03
2023-01-04T22:56:54.403Z,6.25
2023-01-04T22:59:22.959Z,5.25
2023-01-04T23:01:50.084Z,3.80
2023-01-04T23:04:18.025Z,4.40
2023-01-04T23:06:45.317Z,5.43
2023-01-04T23:09:15.301Z,6.45
2023-01-04T23:11:42.566Z,4.95
2023-01-04T23:14:12.808Z,4.03
2023-01-04T23:16:39.830Z,3.47
2023-01-04T23:19:07.275Z,3.50
2023-01-04T23:21:35.134Z,5.07
2023-01-04T23:24:02.651Z,4.53
2023-01-04T23:26:31.222Z,3.63
2023-01-04T23:28:59.715Z,4.32
2023-01-04T23:31:30.216Z,5.20
2023-01-04T23:33:59.678Z,4.60
2023-01-04T23:36:35.582Z,4.75
2023-01-04T23:39:05.553Z,3.45
2023-01-04T23:41:45.156Z,3.53
2023-01-04T23:44:25.344Z,2.85
2023-01-04T23:47:00.829Z,3.47
2023-01-04T23:49:30.322Z,3.72
2023-01-04T23:51:57.582Z,6.40
2023-01-04T23:54:24.752Z,8.55
2023-01-04T23:56:51.765Z,7.57
2023-01-04T23:59:19.484Z,7.15
